sensor_id;sensor_type;location;lat;lon;timestamp;P1;durP1;ratioP1;P2;durP2;ratioP2
56255;SDS011;57229;51.432;-2.598;2022-09-27T00:00:25;3.55;;;1.60;;
56255;SDS011;57229;51.432;-2.598;2022-09-27T00:02:51;4.85;;;1.60;;
56255;SDS011;57229;51.432;-2.598;2022-09-27T00:05:17;3.65;;;1.55;;
56255;SDS011;57229;51.432;-2.598;2022-09-27T00:07:43;2.75;;;1.70;;
56255;SDS011;57229;51.432;-2.598;2022-09-27T00:10:09;4.13;;;1.65;;
56255;SDS011;57229;51.432;-2.598;2022-09-27T00:12:35;4.05;;;1.80;;
56255;SDS011;57229;51.432;-2.598;2022-09-27T00:15:02;1.70;;;1.40;;
56255;SDS011;57229;51.432;-2.598;2022-09-27T00:17:29;2.72;;;1.70;;
56255;SDS011;57229;51.432;-2.598;2022-09-27T00:19:54;2.60;;;1.60;;
56255;SDS011;57229;51.432;-2.598;2022-09-27T00:22:23;5.07;;;1.75;;
56255;SDS011;57229;51.432;-2.598;2022-09-27T00:24:49;2.47;;;1.35;;
56255;SDS011;57229;51.432;-2.598;2022-09-27T00:27:16;4.20;;;1.58;;
56255;SDS011;57229;51.432;-2.598;2022-09-27T00:29:42;3.30;;;1.60;;
56255;SDS011;57229;51.432;-2.598;2022-09-27T00:32:08;3.35;;;1.83;;
56255;SDS011;57229;51.432;-2.598;2022-09-27T00:34:34;4.45;;;1.90;;
56255;SDS011;57229;51.432;-2.598;2022-09-27T00:37:00;3.45;;;1.60;;
56255;SDS011;57229;51.432;-2.598;2022-09-27T00:39:26;3.40;;;1.40;;
56255;SDS011;57229;51.432;-2.598;2022-09-27T00:41:51;3.60;;;1.85;;
56255;SDS011;57229;51.432;-2.598;2022-09-27T00:46:59;2.88;;;1.77;;
56255;SDS011;57229;51.432;-2.598;2022-09-27T00:52:04;3.20;;;1.60;;
56255;SDS011;57229;51.432;-2.598;2022-09-27T00:54:33;2.22;;;1.55;;
56255;SDS011;57229;51.432;-2.598;2022-09-27T00:57:00;3.00;;;1.58;;
56255;SDS011;57229;51.432;-2.598;2022-09-27T00:59:34;2.80;;;1.40;;
56255;SDS011;57229;51.432;-2.598;2022-09-27T01:02:02;4.72;;;2.00;;
56255;SDS011;57229;51.432;-2.598;2022-09-27T01:04:30;4.57;;;1.52;;
56255;SDS011;57229;51.432;-2.598;2022-09-27T01:06:56;2.72;;;1.70;;
56255;SDS011;57229;51.432;-2.598;2022-09-27T01:09:22;4.28;;;1.55;;
56255;SDS011;57229;51.432;-2.598;2022-09-27T01:31:17;5.57;;;1.75;;
56255;SDS011;57229;51.432;-2.598;2022-09-27T01:40:08;5.03;;;1.80;;
56255;SDS011;57229;51.432;-2.598;2022-09-27T01:48:02;5.53;;;1.90;;
56255;SDS011;57229;51.432;-2.598;2022-09-27T01:50:38;4.13;;;1.80;;
56255;SDS011;57229;51.432;-2.598;2022-09-27T01:53:08;4.82;;;1.73;;
56255;SDS011;57229;51.432;-2.598;2022-09-27T01:55:41;7.75;;;1.60;;
56255;SDS011;57229;51.432;-2.598;2022-09-27T01:58:31;4.10;;;1.73;;
56255;SDS011;57229;51.432;-2.598;2022-09-27T02:00:58;4.53;;;1.45;;
56255;SDS011;57229;51.432;-2.598;2022-09-27T02:03:30;4.65;;;1.67;;
56255;SDS011;57229;51.432;-2.598;2022-09-27T02:06:01;2.85;;;1.60;;
56255;SDS011;57229;51.432;-2.598;2022-09-27T02:11:14;7.25;;;2.15;;
56255;SDS011;57229;51.432;-2.598;2022-09-27T02:19:06;5.88;;;1.80;;
56255;SDS011;57229;51.432;-2.598;2022-09-27T02:21:54;4.68;;;1.80;;
56255;SDS011;57229;51.432;-2.598;2022-09-27T02:27:32;5.22;;;1.80;;
56255;SDS011;57229;51.432;-2.598;2022-09-27T02:30:06;4.70;;;1.92;;
56255;SDS011;57229;51.432;-2.598;2022-09-27T02:32:36;3.40;;;1.63;;
56255;SDS011;57229;51.432;-2.598;2022-09-27T02:35:44;4.50;;;1.80;;
56255;SDS011;57229;51.432;-2.598;2022-09-27T02:37:56;4.72;;;1.90;;
56255;SDS011;57229;51.432;-2.598;2022-09-27T02:40:22;3.58;;;1.65;;
56255;SDS011;57229;51.432;-2.598;2022-09-27T02:42:50;6.72;;;2.10;;
56255;SDS011;57229;51.432;-2.598;2022-09-27T02:45:16;4.15;;;1.80;;
56255;SDS011;57229;51.432;-2.598;2022-09-27T02:47:54;5.25;;;1.77;;
56255;SDS011;57229;51.432;-2.598;2022-09-27T02:56:08;5.55;;;1.83;;
56255;SDS011;57229;51.432;-2.598;2022-09-27T03:04:19;7.60;;;1.95;;
56255;SDS011;57229;51.432;-2.598;2022-09-27T03:06:52;4.38;;;1.80;;
56255;SDS011;57229;51.432;-2.598;2022-09-27T03:09:21;4.68;;;1.95;;
56255;SDS011;57229;51.432;-2.598;2022-09-27T03:11:48;4.70;;;1.90;;
56255;SDS011;57229;51.432;-2.598;2022-09-27T03:14:14;5.57;;;2.00;;
56255;SDS011;57229;51.432;-2.598;2022-09-27T03:16:40;7.03;;;2.35;;
56255;SDS011;57229;51.432;-2.598;2022-09-27T03:19:06;6.25;;;1.90;;
56255;SDS011;57229;51.432;-2.598;2022-09-27T03:21:32;4.85;;;2.00;;
56255;SDS011;57229;51.432;-2.598;2022-09-27T03:23:59;10.38;;;2.03;;
56255;SDS011;57229;51.432;-2.598;2022-09-27T03:26:25;8.05;;;2.25;;
56255;SDS011;57229;51.432;-2.598;2022-09-27T03:28:51;6.78;;;2.10;;
56255;SDS011;57229;51.432;-2.598;2022-09-27T03:31:17;5.72;;;1.73;;
56255;SDS011;57229;51.432;-2.598;2022-09-27T03:33:42;8.18;;;2.20;;
56255;SDS011;57229;51.432;-2.598;2022-09-27T03:36:08;8.23;;;2.10;;
56255;SDS011;57229;51.432;-2.598;2022-09-27T03:38:34;7.00;;;1.88;;
56255;SDS011;57229;51.432;-2.598;2022-09-27T03:41:00;5.40;;;1.90;;
56255;SDS011;57229;51.432;-2.598;2022-09-27T03:43:25;9.35;;;2.17;;
56255;SDS011;57229;51.432;-2.598;2022-09-27T03:45:51;6.18;;;1.90;;
56255;SDS011;57229;51.432;-2.598;2022-09-27T03:48:17;6.00;;;1.95;;
56255;SDS011;57229;51.432;-2.598;2022-09-27T03:50:42;6.13;;;1.95;;
56255;SDS011;57229;51.432;-2.598;2022-09-27T03:53:08;7.45;;;2.15;;
56255;SDS011;57229;51.432;-2.598;2022-09-27T03:55:34;5.50;;;1.98;;
56255;SDS011;57229;51.432;-2.598;2022-09-27T03:58:00;5.72;;;2.28;;
56255;SDS011;57229;51.432;-2.598;2022-09-27T04:00:26;8.43;;;2.30;;
56255;SDS011;57229;51.432;-2.598;2022-09-27T04:02:52;7.45;;;2.22;;
56255;SDS011;57229;51.432;-2.598;2022-09-27T04:05:18;4.75;;;1.98;;
56255;SDS011;57229;51.432;-2.598;2022-09-27T04:07:46;9.40;;;2.08;;
56255;SDS011;57229;51.432;-2.598;2022-09-27T04:10:13;8.63;;;3.13;;
56255;SDS011;57229;51.432;-2.598;2022-09-27T04:12:40;4.13;;;1.90;;
56255;SDS011;57229;51.432;-2.598;2022-09-27T04:15:05;7.20;;;2.47;;
56255;SDS011;57229;51.432;-2.598;2022-09-27T04:17:32;4.32;;;2.17;;
56255;SDS011;57229;51.432;-2.598;2022-09-27T04:19:58;8.00;;;2.42;;
56255;SDS011;57229;51.432;-2.598;2022-09-27T04:22:27;6.70;;;2.30;;
56255;SDS011;57229;51.432;-2.598;2022-09-27T04:24:53;7.90;;;2.33;;
56255;SDS011;57229;51.432;-2.598;2022-09-27T04:27:18;9.05;;;2.55;;
56255;SDS011;57229;51.432;-2.598;2022-09-27T04:29:46;6.97;;;2.30;;
56255;SDS011;57229;51.432;-2.598;2022-09-27T04:32:12;7.10;;;2.28;;
56255;SDS011;57229;51.432;-2.598;2022-09-27T04:34:37;8.57;;;2.20;;
56255;SDS011;57229;51.432;-2.598;2022-09-27T04:37:21;11.35;;;2.45;;
56255;SDS011;57229;51.432;-2.598;2022-09-27T04:39:47;4.97;;;2.05;;
56255;SDS011;57229;51.432;-2.598;2022-09-27T04:42:13;13.23;;;2.90;;
56255;SDS011;57229;51.432;-2.598;2022-09-27T04:44:39;7.18;;;2.00;;
56255;SDS011;57229;51.432;-2.598;2022-09-27T04:47:05;7.93;;;2.88;;
56255;SDS011;57229;51.432;-2.598;2022-09-27T04:49:31;8.02;;;2.15;;
56255;SDS011;57229;51.432;-2.598;2022-09-27T04:51:57;5.43;;;2.25;;
56255;SDS011;57229;51.432;-2.598;2022-09-27T04:54:22;6.57;;;2.30;;
56255;SDS011;57229;51.432;-2.598;2022-09-27T04:56:48;10.40;;;2.42;;
56255;SDS011;57229;51.432;-2.598;2022-09-27T04:59:14;7.50;;;2.58;;
56255;SDS011;57229;51.432;-2.598;2022-09-27T05:01:40;9.65;;;2.20;;
56255;SDS011;57229;51.432;-2.598;2022-09-27T05:04:05;9.23;;;2.55;;
56255;SDS011;57229;51.432;-2.598;2022-09-27T05:06:31;8.68;;;2.13;;
56255;SDS011;57229;51.432;-2.598;2022-09-27T05:08:57;6.88;;;2.22;;
56255;SDS011;57229;51.432;-2.598;2022-09-27T05:11:23;7.88;;;2.35;;
56255;SDS011;57229;51.432;-2.598;2022-09-27T05:13:50;7.93;;;2.00;;
56255;SDS011;57229;51.432;-2.598;2022-09-27T05:16:16;6.20;;;1.95;;
56255;SDS011;57229;51.432;-2.598;2022-09-27T05:18:42;10.88;;;2.75;;
56255;SDS011;57229;51.432;-2.598;2022-09-27T05:21:07;6.63;;;2.42;;
56255;SDS011;57229;51.432;-2.598;2022-09-27T05:23:33;8.70;;;2.05;;
56255;SDS011;57229;51.432;-2.598;2022-09-27T05:26:02;5.85;;;2.10;;
56255;SDS011;57229;51.432;-2.598;2022-09-27T05:28:31;6.57;;;2.05;;
56255;SDS011;57229;51.432;-2.598;2022-09-27T05:30:59;8.38;;;2.30;;
56255;SDS011;57229;51.432;-2.598;2022-09-27T05:33:25;9.38;;;2.22;;
56255;SDS011;57229;51.432;-2.598;2022-09-27T05:35:54;8.18;;;2.25;;
56255;SDS011;57229;51.432;-2.598;2022-09-27T05:38:21;7.20;;;2.53;;
56255;SDS011;57229;51.432;-2.598;2022-09-27T05:40:47;5.45;;;2.05;;
56255;SDS011;57229;51.432;-2.598;2022-09-27T05:43:15;11.23;;;2.45;;
56255;SDS011;57229;51.432;-2.598;2022-09-27T05:45:45;5.82;;;2.40;;
56255;SDS011;57229;51.432;-2.598;2022-09-27T05:48:11;11.38;;;2.25;;
56255;SDS011;57229;51.432;-2.598;2022-09-27T05:50:38;6.65;;;1.88;;
56255;SDS011;57229;51.432;-2.598;2022-09-27T05:53:04;5.45;;;2.08;;
56255;SDS011;57229;51.432;-2.598;2022-09-27T05:55:30;6.43;;;2.75;;
56255;SDS011;57229;51.432;-2.598;2022-09-27T05:57:57;5.82;;;2.08;;
56255;SDS011;57229;51.432;-2.598;2022-09-27T06:00:25;10.07;;;2.38;;
56255;SDS011;57229;51.432;-2.598;2022-09-27T06:02:55;8.15;;;2.65;;
56255;SDS011;57229;51.432;-2.598;2022-09-27T06:05:25;7.88;;;2.38;;
56255;SDS011;57229;51.432;-2.598;2022-09-27T06:07:57;5.55;;;2.30;;
56255;SDS011;57229;51.432;-2.598;2022-09-27T06:10:25;8.65;;;2.28;;
56255;SDS011;57229;51.432;-2.598;2022-09-27T06:12:51;6.35;;;2.20;;
56255;SDS011;57229;51.432;-2.598;2022-09-27T06:15:16;7.18;;;2.58;;
56255;SDS011;57229;51.432;-2.598;2022-09-27T06:17:42;7.90;;;2.30;;
56255;SDS011;57229;51.432;-2.598;2022-09-27T06:20:08;7.03;;;2.45;;
56255;SDS011;57229;51.432;-2.598;2022-09-27T06:22:34;6.95;;;2.05;;
56255;SDS011;57229;51.432;-2.598;2022-09-27T06:25:01;9.02;;;2.47;;
56255;SDS011;57229;51.432;-2.598;2022-09-27T06:27:28;7.28;;;2.30;;
56255;SDS011;57229;51.432;-2.598;2022-09-27T06:29:54;7.18;;;2.03;;
56255;SDS011;57229;51.432;-2.598;2022-09-27T06:32:20;7.25;;;2.22;;
56255;SDS011;57229;51.432;-2.598;2022-09-27T06:34:46;7.00;;;2.67;;
56255;SDS011;57229;51.432;-2.598;2022-09-27T06:37:11;8.25;;;2.15;;
56255;SDS011;57229;51.432;-2.598;2022-09-27T06:39:37;7.38;;;2.30;;
56255;SDS011;57229;51.432;-2.598;2022-09-27T06:42:03;9.07;;;2.10;;
56255;SDS011;57229;51.432;-2.598;2022-09-27T06:44:28;7.30;;;2.35;;
56255;SDS011;57229;51.432;-2.598;2022-09-27T06:46:54;8.60;;;2.38;;
56255;SDS011;57229;51.432;-2.598;2022-09-27T06:49:20;8.98;;;2.45;;
56255;SDS011;57229;51.432;-2.598;2022-09-27T06:51:46;8.90;;;2.80;;
56255;SDS011;57229;51.432;-2.598;2022-09-27T06:54:12;11.27;;;3.03;;
56255;SDS011;57229;51.432;-2.598;2022-09-27T06:56:39;9.57;;;2.97;;
56255;SDS011;57229;51.432;-2.598;2022-09-27T06:59:04;10.75;;;2.60;;
56255;SDS011;57229;51.432;-2.598;2022-09-27T07:01:48;9.93;;;3.30;;
56255;SDS011;57229;51.432;-2.598;2022-09-27T07:04:16;10.68;;;2.25;;
56255;SDS011;57229;51.432;-2.598;2022-09-27T07:06:42;8.95;;;2.50;;
56255;SDS011;57229;51.432;-2.598;2022-09-27T07:09:09;11.57;;;3.20;;
56255;SDS011;57229;51.432;-2.598;2022-09-27T07:11:34;7.05;;;2.30;;
56255;SDS011;57229;51.432;-2.598;2022-09-27T07:14:01;6.90;;;2.42;;
56255;SDS011;57229;51.432;-2.598;2022-09-27T07:16:31;8.68;;;2.63;;
56255;SDS011;57229;51.432;-2.598;2022-09-27T07:18:58;13.82;;;2.50;;
56255;SDS011;57229;51.432;-2.598;2022-09-27T07:21:24;9.02;;;2.30;;
56255;SDS011;57229;51.432;-2.598;2022-09-27T07:23:50;9.30;;;2.58;;
56255;SDS011;57229;51.432;-2.598;2022-09-27T07:26:16;17.10;;;3.13;;
56255;SDS011;57229;51.432;-2.598;2022-09-27T07:28:42;6.72;;;2.53;;
56255;SDS011;57229;51.432;-2.598;2022-09-27T07:31:09;14.32;;;2.97;;
56255;SDS011;57229;51.432;-2.598;2022-09-27T07:33:35;8.60;;;2.35;;
56255;SDS011;57229;51.432;-2.598;2022-09-27T07:36:05;14.10;;;2.55;;
56255;SDS011;57229;51.432;-2.598;2022-09-27T07:38:32;7.40;;;2.33;;
56255;SDS011;57229;51.432;-2.598;2022-09-27T07:40:58;7.35;;;2.58;;
56255;SDS011;57229;51.432;-2.598;2022-09-27T07:43:29;8.90;;;3.00;;
56255;SDS011;57229;51.432;-2.598;2022-09-27T07:45:55;9.10;;;2.50;;
56255;SDS011;57229;51.432;-2.598;2022-09-27T07:48:20;10.45;;;2.58;;
56255;SDS011;57229;51.432;-2.598;2022-09-27T07:50:46;11.60;;;2.70;;
56255;SDS011;57229;51.432;-2.598;2022-09-27T07:53:12;9.52;;;2.60;;
56255;SDS011;57229;51.432;-2.598;2022-09-27T07:55:38;12.95;;;2.63;;
56255;SDS011;57229;51.432;-2.598;2022-09-27T07:58:05;13.00;;;2.80;;
56255;SDS011;57229;51.432;-2.598;2022-09-27T08:00:33;6.63;;;2.40;;
56255;SDS011;57229;51.432;-2.598;2022-09-27T08:03:32;10.85;;;2.50;;
56255;SDS011;57229;51.432;-2.598;2022-09-27T08:05:51;5.78;;;2.20;;
56255;SDS011;57229;51.432;-2.598;2022-09-27T08:08:17;6.97;;;2.40;;
56255;SDS011;57229;51.432;-2.598;2022-09-27T08:10:42;14.00;;;2.83;;
56255;SDS011;57229;51.432;-2.598;2022-09-27T08:13:08;10.45;;;3.30;;
56255;SDS011;57229;51.432;-2.598;2022-09-27T08:15:35;8.02;;;2.80;;
56255;SDS011;57229;51.432;-2.598;2022-09-27T08:18:03;10.55;;;3.28;;
56255;SDS011;57229;51.432;-2.598;2022-09-27T08:20:29;10.10;;;2.92;;
56255;SDS011;57229;51.432;-2.598;2022-09-27T08:22:55;9.93;;;2.70;;
56255;SDS011;57229;51.432;-2.598;2022-09-27T08:25:21;7.90;;;2.80;;
56255;SDS011;57229;51.432;-2.598;2022-09-27T08:27:54;13.63;;;3.17;;
56255;SDS011;57229;51.432;-2.598;2022-09-27T08:30:25;10.20;;;2.78;;
56255;SDS011;57229;51.432;-2.598;2022-09-27T08:32:55;12.68;;;2.95;;
56255;SDS011;57229;51.432;-2.598;2022-09-27T08:35:22;19.67;;;3.85;;
56255;SDS011;57229;51.432;-2.598;2022-09-27T08:37:58;14.43;;;3.33;;
56255;SDS011;57229;51.432;-2.598;2022-09-27T08:40:28;15.05;;;3.17;;
56255;SDS011;57229;51.432;-2.598;2022-09-27T08:49:13;11.27;;;3.22;;
56255;SDS011;57229;51.432;-2.598;2022-09-27T08:52:00;16.27;;;3.75;;
56255;SDS011;57229;51.432;-2.598;2022-09-27T08:54:29;12.52;;;3.75;;
56255;SDS011;57229;51.432;-2.598;2022-09-27T08:57:08;16.58;;;4.03;;
56255;SDS011;57229;51.432;-2.598;2022-09-27T08:59:42;16.70;;;3.50;;
56255;SDS011;57229;51.432;-2.598;2022-09-27T09:02:16;15.85;;;3.50;;
56255;SDS011;57229;51.432;-2.598;2022-09-27T09:04:50;12.10;;;3.05;;
56255;SDS011;57229;51.432;-2.598;2022-09-27T09:07:28;16.33;;;3.50;;
56255;SDS011;57229;51.432;-2.598;2022-09-27T09:19:32;14.10;;;3.72;;
56255;SDS011;57229;51.432;-2.598;2022-09-27T09:22:38;16.00;;;3.77;;
56255;SDS011;57229;51.432;-2.598;2022-09-27T09:34:02;19.73;;;3.88;;
56255;SDS011;57229;51.432;-2.598;2022-09-27T09:36:46;17.92;;;3.88;;
56255;SDS011;57229;51.432;-2.598;2022-09-27T09:42:12;17.40;;;3.42;;
56255;SDS011;57229;51.432;-2.598;2022-09-27T09:50:57;16.38;;;3.58;;
56255;SDS011;57229;51.432;-2.598;2022-09-27T09:53:35;18.25;;;3.88;;
56255;SDS011;57229;51.432;-2.598;2022-09-27T09:56:30;15.60;;;3.83;;
56255;SDS011;57229;51.432;-2.598;2022-09-27T09:59:01;19.92;;;4.03;;
56255;SDS011;57229;51.432;-2.598;2022-09-27T10:04:04;12.23;;;4.05;;
56255;SDS011;57229;51.432;-2.598;2022-09-27T10:06:30;18.63;;;4.38;;
56255;SDS011;57229;51.432;-2.598;2022-09-27T10:08:56;19.60;;;3.92;;
56255;SDS011;57229;51.432;-2.598;2022-09-27T10:11:26;15.93;;;3.95;;
56255;SDS011;57229;51.432;-2.598;2022-09-27T10:13:57;14.82;;;4.00;;
56255;SDS011;57229;51.432;-2.598;2022-09-27T10:16:24;12.02;;;4.00;;
56255;SDS011;57229;51.432;-2.598;2022-09-27T10:18:54;15.95;;;3.95;;
56255;SDS011;57229;51.432;-2.598;2022-09-27T10:21:27;16.33;;;4.18;;
56255;SDS011;57229;51.432;-2.598;2022-09-27T10:24:04;12.52;;;3.50;;
56255;SDS011;57229;51.432;-2.598;2022-09-27T10:26:33;14.45;;;4.07;;
56255;SDS011;57229;51.432;-2.598;2022-09-27T10:29:21;17.13;;;3.92;;
56255;SDS011;57229;51.432;-2.598;2022-09-27T10:31:46;9.20;;;3.42;;
56255;SDS011;57229;51.432;-2.598;2022-09-27T10:39:32;16.23;;;3.88;;
56255;SDS011;57229;51.432;-2.598;2022-09-27T10:41:59;14.93;;;3.90;;
56255;SDS011;57229;51.432;-2.598;2022-09-27T10:44:28;13.40;;;3.58;;
56255;SDS011;57229;51.432;-2.598;2022-09-27T10:47:06;10.65;;;3.70;;
56255;SDS011;57229;51.432;-2.598;2022-09-27T10:50:22;13.05;;;3.00;;
56255;SDS011;57229;51.432;-2.598;2022-09-27T10:52:43;13.70;;;3.90;;
56255;SDS011;57229;51.432;-2.598;2022-09-27T10:55:21;12.30;;;3.65;;
56255;SDS011;57229;51.432;-2.598;2022-09-27T10:57:49;12.35;;;3.35;;
56255;SDS011;57229;51.432;-2.598;2022-09-27T11:00:19;10.95;;;3.45;;
56255;SDS011;57229;51.432;-2.598;2022-09-27T11:02:58;12.05;;;3.60;;
56255;SDS011;57229;51.432;-2.598;2022-09-27T11:05:34;11.52;;;3.53;;
56255;SDS011;57229;51.432;-2.598;2022-09-27T11:10:44;13.23;;;3.08;;
56255;SDS011;57229;51.432;-2.598;2022-09-27T11:13:28;12.13;;;3.25;;
56255;SDS011;57229;51.432;-2.598;2022-09-27T11:26:57;15.88;;;3.40;;
56255;SDS011;57229;51.432;-2.598;2022-09-27T11:40:22;17.40;;;3.60;;
56255;SDS011;57229;51.432;-2.598;2022-09-27T11:43:09;17.20;;;3.95;;
56255;SDS011;57229;51.432;-2.598;2022-09-27T11:45:55;14.27;;;3.20;;
56255;SDS011;57229;51.432;-2.598;2022-09-27T11:56:59;13.73;;;3.20;;
56255;SDS011;57229;51.432;-2.598;2022-09-27T11:59:58;12.75;;;3.20;;
56255;SDS011;57229;51.432;-2.598;2022-09-27T12:03:14;13.40;;;3.05;;
56255;SDS011;57229;51.432;-2.598;2022-09-27T12:06:08;17.25;;;3.42;;
56255;SDS011;57229;51.432;-2.598;2022-09-27T12:08:42;17.63;;;3.30;;
56255;SDS011;57229;51.432;-2.598;2022-09-27T12:17:34;31.35;;;3.75;;
56255;SDS011;57229;51.432;-2.598;2022-09-27T12:20:50;14.52;;;3.22;;
56255;SDS011;57229;51.432;-2.598;2022-09-27T12:25:34;14.73;;;3.13;;
56255;SDS011;57229;51.432;-2.598;2022-09-27T12:28:13;13.10;;;3.25;;
56255;SDS011;57229;51.432;-2.598;2022-09-27T12:30:47;12.50;;;3.13;;
56255;SDS011;57229;51.432;-2.598;2022-09-27T12:33:37;12.05;;;3.33;;
56255;SDS011;57229;51.432;-2.598;2022-09-27T12:36:12;15.50;;;3.22;;
56255;SDS011;57229;51.432;-2.598;2022-09-27T12:38:47;9.05;;;3.05;;
56255;SDS011;57229;51.432;-2.598;2022-09-27T12:41:20;13.35;;;3.28;;
56255;SDS011;57229;51.432;-2.598;2022-09-27T12:43:49;9.50;;;3.03;;
56255;SDS011;57229;51.432;-2.598;2022-09-27T12:46:34;9.20;;;3.35;;
56255;SDS011;57229;51.432;-2.598;2022-09-27T12:49:26;12.10;;;3.17;;
56255;SDS011;57229;51.432;-2.598;2022-09-27T12:52:02;12.18;;;3.05;;
56255;SDS011;57229;51.432;-2.598;2022-09-27T12:54:53;13.98;;;3.47;;
56255;SDS011;57229;51.432;-2.598;2022-09-27T13:00:16;11.25;;;2.80;;
56255;SDS011;57229;51.432;-2.598;2022-09-27T13:03:25;10.70;;;2.95;;
56255;SDS011;57229;51.432;-2.598;2022-09-27T13:09:50;10.45;;;2.60;;
56255;SDS011;57229;51.432;-2.598;2022-09-27T13:12:48;9.18;;;2.75;;
56255;SDS011;57229;51.432;-2.598;2022-09-27T13:17:53;11.90;;;3.70;;
56255;SDS011;57229;51.432;-2.598;2022-09-27T13:20:31;11.05;;;2.85;;
56255;SDS011;57229;51.432;-2.598;2022-09-27T13:23:01;11.35;;;2.72;;
56255;SDS011;57229;51.432;-2.598;2022-09-27T13:25:53;9.70;;;2.75;;
56255;SDS011;57229;51.432;-2.598;2022-09-27T13:36:19;12.73;;;3.40;;
56255;SDS011;57229;51.432;-2.598;2022-09-27T13:49:45;8.43;;;2.50;;
56255;SDS011;57229;51.432;-2.598;2022-09-27T13:54:56;10.30;;;3.00;;
56255;SDS011;57229;51.432;-2.598;2022-09-27T14:00:29;11.82;;;2.70;;
56255;SDS011;57229;51.432;-2.598;2022-09-27T14:03:13;8.55;;;3.00;;
56255;SDS011;57229;51.432;-2.598;2022-09-27T14:05:46;10.35;;;2.75;;
56255;SDS011;57229;51.432;-2.598;2022-09-27T14:08:36;8.52;;;2.97;;
56255;SDS011;57229;51.432;-2.598;2022-09-27T14:11:59;9.77;;;2.70;;
56255;SDS011;57229;51.432;-2.598;2022-09-27T14:14:21;7.95;;;3.05;;
56255;SDS011;57229;51.432;-2.598;2022-09-27T14:16:51;10.57;;;2.85;;
56255;SDS011;57229;51.432;-2.598;2022-09-27T14:19:19;7.72;;;2.50;;
56255;SDS011;57229;51.432;-2.598;2022-09-27T14:21:46;11.88;;;2.80;;
56255;SDS011;57229;51.432;-2.598;2022-09-27T14:24:31;10.43;;;2.92;;
56255;SDS011;57229;51.432;-2.598;2022-09-27T14:30:12;9.88;;;3.17;;
56255;SDS011;57229;51.432;-2.598;2022-09-27T14:32:44;10.48;;;3.05;;
56255;SDS011;57229;51.432;-2.598;2022-09-27T14:35:22;9.70;;;2.95;;
56255;SDS011;57229;51.432;-2.598;2022-09-27T14:38:09;11.23;;;2.70;;
56255;SDS011;57229;51.432;-2.598;2022-09-27T14:40:53;8.48;;;2.75;;
56255;SDS011;57229;51.432;-2.598;2022-09-27T14:43:23;8.73;;;2.63;;
56255;SDS011;57229;51.432;-2.598;2022-09-27T14:45:51;6.07;;;2.80;;
56255;SDS011;57229;51.432;-2.598;2022-09-27T14:48:37;9.63;;;2.58;;
56255;SDS011;57229;51.432;-2.598;2022-09-27T14:53:36;10.27;;;2.40;;
56255;SDS011;57229;51.432;-2.598;2022-09-27T14:56:18;6.38;;;2.60;;
56255;SDS011;57229;51.432;-2.598;2022-09-27T14:58:49;6.22;;;2.50;;
56255;SDS011;57229;51.432;-2.598;2022-09-27T15:01:20;7.95;;;2.63;;
56255;SDS011;57229;51.432;-2.598;2022-09-27T15:03:47;10.15;;;2.40;;
56255;SDS011;57229;51.432;-2.598;2022-09-27T15:06:17;10.30;;;2.60;;
56255;SDS011;57229;51.432;-2.598;2022-09-27T15:11:23;8.18;;;2.35;;
56255;SDS011;57229;51.432;-2.598;2022-09-27T15:13:53;9.07;;;2.78;;
56255;SDS011;57229;51.432;-2.598;2022-09-27T15:19:30;8.60;;;2.67;;
56255;SDS011;57229;51.432;-2.598;2022-09-27T15:24:49;8.45;;;3.00;;
56255;SDS011;57229;51.432;-2.598;2022-09-27T15:27:17;7.47;;;2.42;;
56255;SDS011;57229;51.432;-2.598;2022-09-27T15:30:14;7.22;;;2.58;;
56255;SDS011;57229;51.432;-2.598;2022-09-27T15:32:46;7.57;;;2.20;;
56255;SDS011;57229;51.432;-2.598;2022-09-27T15:35:17;8.52;;;2.40;;
56255;SDS011;57229;51.432;-2.598;2022-09-27T15:37:47;13.00;;;3.05;;
56255;SDS011;57229;51.432;-2.598;2022-09-27T15:43:12;17.48;;;3.88;;
56255;SDS011;57229;51.432;-2.598;2022-09-27T15:45:50;22.00;;;4.25;;
56255;SDS011;57229;51.432;-2.598;2022-09-27T15:48:17;23.80;;;4.93;;
56255;SDS011;57229;51.432;-2.598;2022-09-27T15:50:44;18.60;;;4.78;;
56255;SDS011;57229;51.432;-2.598;2022-09-27T15:53:11;20.00;;;4.78;;
56255;SDS011;57229;51.432;-2.598;2022-09-27T15:55:41;19.60;;;4.97;;
56255;SDS011;57229;51.432;-2.598;2022-09-27T15:58:18;23.10;;;4.80;;
56255;SDS011;57229;51.432;-2.598;2022-09-27T16:00:51;17.52;;;4.55;;
56255;SDS011;57229;51.432;-2.598;2022-09-27T16:03:22;19.17;;;4.90;;
56255;SDS011;57229;51.432;-2.598;2022-09-27T16:05:49;16.30;;;4.00;;
56255;SDS011;57229;51.432;-2.598;2022-09-27T16:08:15;18.45;;;4.95;;
56255;SDS011;57229;51.432;-2.598;2022-09-27T16:10:42;16.63;;;5.10;;
56255;SDS011;57229;51.432;-2.598;2022-09-27T16:13:10;13.73;;;4.40;;
56255;SDS011;57229;51.432;-2.598;2022-09-27T16:15:36;18.45;;;4.38;;
56255;SDS011;57229;51.432;-2.598;2022-09-27T16:18:02;19.15;;;4.53;;
56255;SDS011;57229;51.432;-2.598;2022-09-27T16:20:28;24.08;;;5.88;;
56255;SDS011;57229;51.432;-2.598;2022-09-27T16:23:00;19.70;;;4.22;;
56255;SDS011;57229;51.432;-2.598;2022-09-27T16:25:30;21.35;;;5.07;;
56255;SDS011;57229;51.432;-2.598;2022-09-27T16:27:57;20.80;;;4.07;;
56255;SDS011;57229;51.432;-2.598;2022-09-27T16:30:24;18.90;;;4.30;;
56255;SDS011;57229;51.432;-2.598;2022-09-27T16:32:50;14.38;;;4.13;;
56255;SDS011;57229;51.432;-2.598;2022-09-27T16:35:20;19.48;;;3.88;;
56255;SDS011;57229;51.432;-2.598;2022-09-27T16:37:51;17.35;;;4.25;;
56255;SDS011;57229;51.432;-2.598;2022-09-27T16:40:17;12.68;;;3.60;;
56255;SDS011;57229;51.432;-2.598;2022-09-27T16:42:43;13.07;;;3.53;;
56255;SDS011;57229;51.432;-2.598;2022-09-27T16:45:12;13.25;;;3.47;;
56255;SDS011;57229;51.432;-2.598;2022-09-27T16:47:40;12.32;;;3.42;;
56255;SDS011;57229;51.432;-2.598;2022-09-27T16:50:06;15.80;;;3.65;;
56255;SDS011;57229;51.432;-2.598;2022-09-27T16:52:53;14.10;;;3.42;;
56255;SDS011;57229;51.432;-2.598;2022-09-27T16:55:20;11.88;;;3.22;;
56255;SDS011;57229;51.432;-2.598;2022-09-27T16:57:49;10.18;;;3.58;;
56255;SDS011;57229;51.432;-2.598;2022-09-27T17:00:15;18.02;;;3.40;;
56255;SDS011;57229;51.432;-2.598;2022-09-27T17:02:43;11.02;;;3.25;;
56255;SDS011;57229;51.432;-2.598;2022-09-27T17:05:12;12.05;;;3.40;;
56255;SDS011;57229;51.432;-2.598;2022-09-27T17:07:38;8.05;;;3.08;;
56255;SDS011;57229;51.432;-2.598;2022-09-27T17:10:05;7.72;;;2.85;;
56255;SDS011;57229;51.432;-2.598;2022-09-27T17:12:38;9.43;;;3.35;;
56255;SDS011;57229;51.432;-2.598;2022-09-27T17:15:18;6.20;;;2.70;;
56255;SDS011;57229;51.432;-2.598;2022-09-27T17:17:47;12.27;;;3.40;;
56255;SDS011;57229;51.432;-2.598;2022-09-27T17:20:14;13.43;;;2.85;;
56255;SDS011;57229;51.432;-2.598;2022-09-27T17:22:41;16.63;;;2.50;;
56255;SDS011;57229;51.432;-2.598;2022-09-27T17:25:08;13.63;;;3.00;;
56255;SDS011;57229;51.432;-2.598;2022-09-27T17:27:34;16.42;;;3.17;;
56255;SDS011;57229;51.432;-2.598;2022-09-27T17:30:05;19.58;;;3.20;;
56255;SDS011;57229;51.432;-2.598;2022-09-27T17:32:45;11.38;;;2.83;;
56255;SDS011;57229;51.432;-2.598;2022-09-27T17:35:10;12.93;;;2.97;;
56255;SDS011;57229;51.432;-2.598;2022-09-27T17:37:36;10.40;;;2.53;;
56255;SDS011;57229;51.432;-2.598;2022-09-27T17:40:03;15.75;;;3.13;;
56255;SDS011;57229;51.432;-2.598;2022-09-27T17:42:29;10.93;;;2.50;;
56255;SDS011;57229;51.432;-2.598;2022-09-27T17:44:58;15.75;;;2.70;;
56255;SDS011;57229;51.432;-2.598;2022-09-27T17:47:27;17.13;;;2.90;;
56255;SDS011;57229;51.432;-2.598;2022-09-27T17:50:11;10.70;;;2.88;;
56255;SDS011;57229;51.432;-2.598;2022-09-27T17:52:49;15.93;;;3.13;;
56255;SDS011;57229;51.432;-2.598;2022-09-27T17:55:15;12.25;;;3.55;;
56255;SDS011;57229;51.432;-2.598;2022-09-27T17:57:41;15.10;;;2.80;;
56255;SDS011;57229;51.432;-2.598;2022-09-27T18:00:07;11.77;;;2.70;;
56255;SDS011;57229;51.432;-2.598;2022-09-27T18:02:33;9.57;;;2.53;;